Hopedale, Canada
Current Conditions -  °F | °C
As of 12:00 PM on Sunday 23 Nov 2014 (Local Time) from CYDP Reporting Station
Broken Clouds Broken Clouds  
Wind Chill:   Ceiling: 24000
Heat Index: 19°   Visibility: 15mi
Dew Point:   Wind: 25mph
Humidity: 54%   Direction: 300°WNW
Pressure: 29.44"   Gusts: 35mph
Location:  55.46°N, 60.19°W
Report Text: CYDP 231600Z 30022G30KT 15SM FEW090 BKN240 M07/M15 A2944 RMKAC1CI3 SLP970
Loading
Personal Weather Stations






























Interactive Weather Map New forecast layout! Learn more

10-Day Weather Forecast

Advertisements
Track Severe Weather on mobile